Time;durP1;ratioP1;P1;durP2;ratioP2;P2;SDS_P1;SDS_P2;PMS_P1;PMS_P2;Temp;Humidity;BMP_temperature;BMP_pressure;BME280_temperature;BME280_humidity;BME280_pressure;Samples;Min_cycle;Max_cycle;Signal;HPM_P1;HPM_P2
2022/12/25 00:00:32;;;;;;;7.03;4.03;;;14.60;69.90;;;;;;5080332;28;20851;-71
2022/12/25 00:02:59;;;;;;;5.90;4.20;;;14.60;70.00;;;;;;5094358;28;20528;-71
2022/12/25 00:05:26;;;;;;;9.13;4.70;;;14.50;70.10;;;;;;5074943;28;20443;-71
2022/12/25 00:07:53;;;;;;;8.63;4.37;;;14.50;70.30;;;;;;5074431;28;20447;-71
2022/12/25 00:10:19;;;;;;;5.03;3.67;;;14.50;70.40;;;;;;5075127;28;20538;-71
2022/12/25 00:12:48;;;;;;;5.97;4.00;;;14.50;70.60;;;;;;5074177;28;20450;-71
2022/12/25 00:15:14;;;;;;;6.03;4.27;;;14.50;70.60;;;;;;5074780;28;20462;-71
2022/12/25 00:17:41;;;;;;;7.07;3.90;;;14.50;70.60;;;;;;5094024;28;20447;-71
2022/12/25 00:20:09;;;;;;;6.00;4.40;;;14.50;70.60;;;;;;5094252;28;20442;-72
2022/12/25 00:22:36;;;;;;;6.20;3.80;;;14.50;70.70;;;;;;5095161;28;20805;-72
2022/12/25 00:25:04;;;;;;;9.10;4.17;;;14.50;70.70;;;;;;5094574;28;20446;-72
2022/12/25 00:27:32;;;;;;;6.47;4.03;;;14.50;70.70;;;;;;5094151;28;20456;-71
2022/12/25 00:30:01;;;;;;;9.30;4.80;;;14.50;70.80;;;;;;5094075;28;20474;-71
2022/12/25 00:32:27;;;;;;;7.30;4.53;;;14.50;70.90;;;;;;5094284;28;20450;-71
2022/12/25 00:34:54;;;;;;;7.33;4.20;;;14.50;71.00;;;;;;5093507;28;20945;-71
2022/12/25 00:37:21;;;;;;;10.83;4.73;;;14.50;70.90;;;;;;5084654;28;20467;-71
2022/12/25 00:39:49;;;;;;;11.20;4.73;;;14.50;70.90;;;;;;5089319;28;20437;-71
2022/12/25 00:42:18;;;;;;;7.30;4.60;;;14.50;71.10;;;;;;5093058;28;20446;-71
2022/12/25 00:44:45;;;;;;;7.33;4.90;;;14.50;71.10;;;;;;5089181;28;20455;-71
2022/12/25 00:47:14;;;;;;;8.47;4.70;;;14.50;71.30;;;;;;5093595;28;20482;-71
2022/12/25 00:49:41;;;;;;;8.57;4.77;;;14.40;71.30;;;;;;5093752;28;20482;-71
2022/12/25 00:52:08;;;;;;;7.17;4.30;;;14.40;71.30;;;;;;5082833;28;20459;-71
2022/12/25 00:54:38;;;;;;;6.30;4.23;;;14.50;71.50;;;;;;5086395;28;20451;-71
2022/12/25 00:57:05;;;;;;;6.80;4.40;;;14.40;71.30;;;;;;5082516;28;20474;-70
2022/12/25 00:59:32;;;;;;;8.03;5.00;;;14.50;71.60;;;;;;5092864;28;20445;-71
2022/12/25 01:02:22;;;;;;;8.93;4.83;;;14.40;71.60;;;;;;5092139;28;20442;-71
2022/12/25 01:04:49;;;;;;;7.40;4.20;;;14.40;71.60;;;;;;5090298;28;20971;-71
2022/12/25 01:07:16;;;;;;;7.37;4.50;;;14.40;71.70;;;;;;5090319;28;20445;-70
2022/12/25 01:12:29;;;;;;;8.43;4.20;;;14.50;71.90;;;;;;5092684;28;20841;-67
2022/12/25 01:14:56;;;;;;;7.10;4.67;;;14.50;72.00;;;;;;5089002;28;20446;-70
2022/12/25 01:17:23;;;;;;;6.83;4.77;;;14.50;72.10;;;;;;5092538;28;20948;-70
2022/12/25 01:19:51;;;;;;;6.30;4.00;;;14.50;72.00;;;;;;5093207;28;20557;-70
2022/12/25 01:22:18;;;;;;;7.50;4.37;;;14.50;72.00;;;;;;5093945;28;20758;-70
2022/12/25 01:24:46;;;;;;;6.07;4.43;;;14.50;72.10;;;;;;5088963;28;20447;-70
2022/12/25 01:27:13;;;;;;;6.53;4.33;;;14.50;72.10;;;;;;5072661;28;20461;-70
2022/12/25 01:29:40;;;;;;;8.90;4.33;;;14.50;72.10;;;;;;5072378;28;20562;-69
2022/12/25 01:32:07;;;;;;;5.83;4.20;;;14.50;72.00;;;;;;5089732;28;20454;-70
2022/12/25 01:34:36;;;;;;;7.57;4.40;;;14.50;72.20;;;;;;5091335;28;20807;-70
2022/12/25 01:37:04;;;;;;;5.63;4.10;;;14.50;72.30;;;;;;5072424;28;20451;-70
2022/12/25 01:39:31;;;;;;;9.37;4.47;;;14.50;72.40;;;;;;5072693;28;20544;-70
2022/12/25 01:41:58;;;;;;;8.67;4.07;;;14.50;72.30;;;;;;5072741;28;20444;-70
2022/12/25 01:45:03;;;;;;;8.30;4.10;;;14.50;72.40;;;;;;5084687;28;20450;-70
2022/12/25 01:47:29;;;;;;;5.73;3.83;;;14.50;73.00;;;;;;5092855;28;20437;-69
2022/12/25 01:49:57;;;;;;;5.20;3.93;;;14.50;72.70;;;;;;5084104;28;20514;-70
2022/12/25 01:52:25;;;;;;;7.03;3.77;;;14.50;72.90;;;;;;5082023;28;20810;-69
2022/12/25 01:54:55;;;;;;;5.63;3.90;;;14.50;73.00;;;;;;5079009;28;20454;-69
2022/12/25 01:57:25;;;;;;;7.13;3.50;;;14.50;73.10;;;;;;5081008;28;20989;-69
2022/12/25 01:59:53;;;;;;;9.37;5.30;;;14.50;73.00;;;;;;5092014;28;20478;-69
2022/12/25 02:02:21;;;;;;;9.17;4.40;;;14.50;73.00;;;;;;5092937;28;20521;-69
2022/12/25 02:04:51;;;;;;;6.07;3.87;;;14.50;72.90;;;;;;5089460;28;20450;-69
2022/12/25 02:07:22;;;;;;;8.33;3.93;;;14.50;73.00;;;;;;5071932;28;20445;-69
2022/12/25 02:09:51;;;;;;;7.60;4.10;;;14.50;73.10;;;;;;5092833;28;20467;-69
2022/12/25 02:12:20;;;;;;;7.57;3.40;;;14.50;73.10;;;;;;5092599;28;20462;-70
2022/12/25 02:14:49;;;;;;;6.20;4.00;;;14.50;73.10;;;;;;5091469;28;20450;-69
2022/12/25 02:17:22;;;;;;;8.47;4.10;;;14.50;73.20;;;;;;5092316;28;20447;-69
2022/12/25 02:20:13;;;;;;;5.83;4.13;;;14.50;73.50;;;;;;5092572;28;20437;-69
2022/12/25 02:22:56;;;;;;;5.73;3.77;;;14.50;73.90;;;;;;5092299;28;20530;-69
2022/12/25 02:25:42;;;;;;;8.07;4.00;;;14.50;74.00;;;;;;5091791;28;20492;-69
2022/12/25 02:28:21;;;;;;;5.10;3.43;;;14.50;73.80;;;;;;5090204;28;20450;-69
2022/12/25 02:30:54;;;;;;;5.57;3.37;;;14.50;73.80;;;;;;5092348;28;20469;-69
2022/12/25 02:36:20;;;;;;;6.43;3.90;;;14.50;73.60;;;;;;5070994;28;20442;-69
2022/12/25 02:41:37;;;;;;;7.40;4.00;;;14.50;73.50;;;;;;5054872;28;20497;-70
2022/12/25 03:06:45;;;;;;;8.00;4.00;;;14.40;74.70;;;;;;5091610;28;20457;-70
2022/12/25 03:12:05;;;;;;;8.13;4.17;;;14.40;73.90;;;;;;5091358;28;20475;-69
2022/12/25 03:17:18;;;;;;;5.97;3.70;;;14.40;73.70;;;;;;5091551;28;20430;-69
2022/12/25 03:28:02;;;;;;;7.20;4.20;;;14.20;73.50;;;;;;5091247;28;20885;-70
2022/12/25 03:33:31;;;;;;;9.77;4.00;;;14.20;73.80;;;;;;5091242;28;21068;-69
2022/12/25 03:36:02;;;;;;;9.20;4.03;;;14.10;74.40;;;;;;5090909;28;20875;-69
2022/12/25 04:36:48;;;;;;;8.23;4.23;;;14.20;75.60;;;;;;5094582;28;20449;-69
2022/12/25 04:39:16;;;;;;;8.20;4.37;;;14.10;75.50;;;;;;5093660;28;20470;-69
2022/12/25 04:41:43;;;;;;;7.13;4.30;;;14.10;75.50;;;;;;5094389;28;20450;-70
2022/12/25 04:44:10;;;;;;;7.33;3.93;;;14.10;75.60;;;;;;5092983;28;20942;-69
2022/12/25 04:46:36;;;;;;;7.63;3.83;;;14.10;75.50;;;;;;5093894;28;20482;-69
2022/12/25 04:49:03;;;;;;;6.30;4.00;;;14.10;75.20;;;;;;5094085;28;20774;-69
2022/12/25 04:51:30;;;;;;;6.83;4.30;;;14.20;75.20;;;;;;5094519;28;20443;-69
2022/12/25 04:53:57;;;;;;;6.33;4.27;;;14.10;75.20;;;;;;5093232;28;20446;-70
2022/12/25 04:56:25;;;;;;;7.17;4.53;;;14.10;75.30;;;;;;5093803;28;20473;-70
2022/12/25 04:58:52;;;;;;;7.00;4.33;;;14.10;75.30;;;;;;5094099;28;20461;-70
2022/12/25 05:01:20;;;;;;;7.57;3.90;;;14.20;75.40;;;;;;5093187;28;20446;-70
2022/12/25 05:03:47;;;;;;;4.93;3.90;;;14.10;75.40;;;;;;5093585;28;20542;-70
2022/12/25 05:06:24;;;;;;;6.90;4.13;;;14.10;75.50;;;;;;5093388;28;20446;-70
2022/12/25 05:08:51;;;;;;;7.87;3.97;;;14.10;75.80;;;;;;5094229;28;20433;-70
2022/12/25 05:11:18;;;;;;;7.07;3.73;;;14.10;75.50;;;;;;5092914;28;20497;-70
2022/12/25 05:13:46;;;;;;;7.60;4.60;;;14.10;75.40;;;;;;5092064;28;20458;-70
2022/12/25 05:16:15;;;;;;;9.23;4.37;;;14.10;75.40;;;;;;5093027;28;20478;-69
2022/12/25 05:18:42;;;;;;;5.87;4.03;;;14.10;75.50;;;;;;5093762;28;20442;-70
2022/12/25 05:21:10;;;;;;;5.77;3.80;;;14.00;75.40;;;;;;5093206;28;20793;-70
2022/12/25 05:23:37;;;;;;;10.07;4.60;;;14.00;75.30;;;;;;5092955;28;20453;-70
2022/12/25 05:26:05;;;;;;;4.80;3.90;;;14.00;75.30;;;;;;5092575;28;20446;-70
2022/12/25 05:28:33;;;;;;;5.00;3.80;;;14.00;75.50;;;;;;5093191;28;20447;-70
2022/12/25 05:31:02;;;;;;;7.83;4.20;;;13.90;75.40;;;;;;5093637;28;20474;-70
2022/12/25 05:33:29;;;;;;;6.23;3.97;;;13.90;75.50;;;;;;5092546;28;20457;-70
2022/12/25 05:35:55;;;;;;;5.70;4.00;;;14.00;75.70;;;;;;5093230;28;20446;-70
2022/12/25 05:38:22;;;;;;;7.20;4.10;;;13.90;75.50;;;;;;5092626;28;20462;-70
2022/12/25 05:40:51;;;;;;;7.80;4.07;;;13.90;75.40;;;;;;5093508;28;20445;-69
2022/12/25 05:43:18;;;;;;;6.77;3.80;;;13.90;75.40;;;;;;5091715;28;20460;-69
2022/12/25 05:45:45;;;;;;;5.97;3.87;;;13.90;75.30;;;;;;5092985;28;20485;-70
2022/12/25 05:48:14;;;;;;;5.00;3.93;;;13.90;75.10;;;;;;5092582;28;20448;-70
2022/12/25 05:50:40;;;;;;;5.63;3.97;;;13.90;75.20;;;;;;5093177;28;20811;-70
2022/12/25 05:53:08;;;;;;;5.30;3.70;;;13.90;75.10;;;;;;5092008;28;20442;-69
2022/12/25 05:55:36;;;;;;;6.77;3.70;;;13.90;75.10;;;;;;5093309;28;20443;-69
2022/12/25 05:58:04;;;;;;;5.90;3.90;;;13.90;75.10;;;;;;5092285;28;20454;-69
2022/12/25 06:00:31;;;;;;;5.70;4.03;;;13.90;75.50;;;;;;5092991;28;20446;-69
2022/12/25 06:02:58;;;;;;;5.77;3.90;;;13.90;75.90;;;;;;5085688;28;20455;-70
2022/12/25 06:05:26;;;;;;;6.27;3.97;;;13.90;75.80;;;;;;5072241;28;20449;-70
2022/12/25 06:07:53;;;;;;;8.10;4.03;;;13.80;75.70;;;;;;5072648;28;20458;-70
2022/12/25 06:10:21;;;;;;;3.87;3.57;;;13.80;75.60;;;;;;5072126;28;20481;-70
2022/12/25 06:12:47;;;;;;;5.70;3.90;;;13.80;75.60;;;;;;5083278;28;20455;-70
2022/12/25 06:15:14;;;;;;;4.83;3.80;;;13.80;75.70;;;;;;5091900;28;20443;-70
2022/12/25 06:17:41;;;;;;;5.80;3.50;;;13.80;75.70;;;;;;5092444;28;20446;-70
2022/12/25 06:20:09;;;;;;;6.80;3.73;;;13.80;75.70;;;;;;5092198;28;20442;-70
2022/12/25 06:22:37;;;;;;;4.83;3.50;;;13.80;75.80;;;;;;5088293;28;20942;-69
2022/12/25 06:25:05;;;;;;;6.27;3.80;;;13.80;75.90;;;;;;5086408;28;20446;-70
2022/12/25 06:27:31;;;;;;;5.53;3.23;;;13.80;76.00;;;;;;5091782;28;20476;-69
2022/12/25 06:29:58;;;;;;;3.97;2.90;;;13.90;76.20;;;;;;5092292;28;20484;-69
2022/12/25 06:32:25;;;;;;;4.67;3.00;;;13.80;76.20;;;;;;5091190;28;20485;-69
2022/12/25 06:34:52;;;;;;;4.70;2.87;;;13.80;76.30;;;;;;5077078;28;20522;-70
2022/12/25 06:37:19;;;;;;;4.33;2.80;;;13.80;76.30;;;;;;5091627;28;20452;-69
2022/12/25 06:39:48;;;;;;;2.73;2.43;;;13.90;76.50;;;;;;5092600;28;20450;-69
2022/12/25 06:42:15;;;;;;;5.20;3.10;;;13.90;76.50;;;;;;5091624;28;20485;-69
2022/12/25 06:44:42;;;;;;;2.60;2.40;;;13.90;76.50;;;;;;5089693;28;20446;-70
2022/12/25 06:47:09;;;;;;;2.90;2.43;;;13.90;76.50;;;;;;5091393;28;20482;-70
2022/12/25 06:49:35;;;;;;;3.00;2.70;;;13.90;76.60;;;;;;5091453;28;20453;-69
2022/12/25 06:52:02;;;;;;;3.30;2.30;;;14.00;76.70;;;;;;5091453;28;20442;-70
2022/12/25 06:54:29;;;;;;;2.83;2.53;;;14.00;76.70;;;;;;5091977;28;20450;-69
2022/12/25 06:56:57;;;;;;;2.97;2.30;;;14.00;76.70;;;;;;5081714;28;20861;-69
2022/12/25 06:59:24;;;;;;;3.17;2.33;;;14.00;76.70;;;;;;5091653;28;20447;-69
2022/12/25 07:01:54;;;;;;;3.40;2.47;;;14.10;76.80;;;;;;5092539;28;20443;-69
2022/12/25 07:04:26;;;;;;;2.40;2.20;;;14.10;76.80;;;;;;5090641;28;20790;-69
2022/12/25 07:06:53;;;;;;;2.57;2.30;;;14.10;76.80;;;;;;5091615;28;20434;-69
2022/12/25 07:09:20;;;;;;;2.83;2.53;;;14.10;76.80;;;;;;5091786;28;20816;-69
2022/12/25 07:11:47;;;;;;;3.07;2.00;;;14.10;77.60;;;;;;5091917;28;20577;-69
2022/12/25 07:14:29;;;;;;;2.30;2.07;;;14.10;76.80;;;;;;5074944;28;20920;-69
2022/12/25 07:16:56;;;;;;;2.60;2.17;;;14.10;76.80;;;;;;5092254;28;20977;-69
2022/12/25 07:19:23;;;;;;;2.10;1.90;;;14.10;76.90;;;;;;5091122;28;20547;-69
2022/12/25 07:21:50;;;;;;;3.03;2.10;;;14.20;76.90;;;;;;5091039;28;20445;-69
2022/12/25 07:24:19;;;;;;;2.00;1.90;;;14.20;76.90;;;;;;5083211;28;20454;-69
2022/12/25 07:26:46;;;;;;;3.40;2.13;;;14.20;76.90;;;;;;5091669;28;20500;-70
2022/12/25 07:29:13;;;;;;;2.30;2.10;;;14.20;76.90;;;;;;5093756;28;20449;-70
2022/12/25 07:31:41;;;;;;;4.90;2.37;;;14.20;76.90;;;;;;5095196;28;20472;-69
2022/12/25 07:34:08;;;;;;;5.67;2.93;;;14.20;76.90;;;;;;5085354;28;20454;-69
2022/12/25 07:36:35;;;;;;;3.03;2.60;;;14.20;76.90;;;;;;5075855;28;20455;-69
2022/12/25 07:39:01;;;;;;;3.67;2.50;;;14.20;76.90;;;;;;5075446;28;20526;-70
2022/12/25 07:41:28;;;;;;;2.63;2.43;;;14.20;76.90;;;;;;5075137;28;20447;-69
2022/12/25 07:43:55;;;;;;;3.50;2.40;;;14.20;76.90;;;;;;5087910;28;20470;-70
2022/12/25 07:46:23;;;;;;;3.23;2.13;;;14.30;77.00;;;;;;5081324;28;20489;-69
2022/12/25 07:48:51;;;;;;;2.23;1.90;;;14.30;77.00;;;;;;5088036;28;20454;-70
2022/12/25 07:51:18;;;;;;;2.10;1.80;;;14.30;77.00;;;;;;5081896;28;20580;-69
2022/12/25 07:53:45;;;;;;;2.20;2.00;;;14.30;77.00;;;;;;5095072;28;20507;-69
2022/12/25 07:56:13;;;;;;;3.83;2.00;;;14.30;77.00;;;;;;5094191;28;20974;-69
2022/12/25 07:58:41;;;;;;;2.20;2.00;;;14.30;77.00;;;;;;5095488;28;20442;-69
2022/12/25 08:01:11;;;;;;;2.17;1.87;;;14.30;77.00;;;;;;5093850;28;21172;-70
2022/12/25 08:03:38;;;;;;;2.33;2.07;;;14.30;76.90;;;;;;5094328;28;20446;-69
2022/12/25 08:06:08;;;;;;;1.80;1.70;;;14.40;77.00;;;;;;5094529;28;20449;-70
2022/12/25 08:08:36;;;;;;;2.53;2.20;;;14.40;77.10;;;;;;5094842;28;20434;-70
2022/12/25 08:11:03;;;;;;;2.23;2.03;;;14.40;77.10;;;;;;5094352;28;20552;-69
2022/12/25 08:13:31;;;;;;;2.27;2.07;;;14.40;77.10;;;;;;5094716;28;20472;-69
2022/12/25 08:15:59;;;;;;;2.37;2.17;;;14.50;77.10;;;;;;5076823;28;20460;-69
2022/12/25 08:18:26;;;;;;;2.37;2.17;;;14.50;77.10;;;;;;5080861;28;20456;-69
2022/12/25 08:20:53;;;;;;;2.50;2.30;;;14.50;77.10;;;;;;5093970;28;20444;-69
2022/12/25 08:23:21;;;;;;;2.33;2.13;;;14.50;77.00;;;;;;5093998;28;20961;-69
2022/12/25 08:25:48;;;;;;;3.50;2.87;;;14.50;77.20;;;;;;5078466;28;20534;-70
2022/12/25 08:28:15;;;;;;;3.13;2.77;;;14.50;78.00;;;;;;5074173;28;20443;-68
2022/12/25 08:30:42;;;;;;;3.40;2.50;;;14.50;77.20;;;;;;5077058;28;20478;-70
2022/12/25 08:33:09;;;;;;;3.43;2.60;;;14.50;77.20;;;;;;5094507;28;20858;-70
2022/12/25 08:35:36;;;;;;;4.27;2.47;;;14.60;77.30;;;;;;5093207;28;20545;-70
2022/12/25 08:38:03;;;;;;;2.67;2.30;;;14.50;78.00;;;;;;5093432;28;20459;-71
2022/12/25 08:40:31;;;;;;;3.10;2.80;;;14.50;77.20;;;;;;5093270;28;20961;-70
2022/12/25 08:42:58;;;;;;;4.30;2.73;;;14.60;77.30;;;;;;5094451;28;20776;-70
2022/12/25 08:45:25;;;;;;;3.70;2.80;;;14.60;77.30;;;;;;5092772;28;20825;-70
2022/12/25 08:47:54;;;;;;;3.03;2.70;;;14.70;77.50;;;;;;5094192;28;20522;-70
2022/12/25 08:50:21;;;;;;;2.43;2.23;;;14.80;77.60;;;;;;5093567;28;20460;-70
2022/12/25 08:52:48;;;;;;;2.40;2.20;;;14.90;76.40;;;;;;5094084;28;20465;-70
2022/12/25 08:55:14;;;;;;;2.63;2.43;;;15.00;75.70;;;;;;5092813;28;20455;-70
2022/12/25 08:57:43;;;;;;;3.33;2.73;;;15.10;76.00;;;;;;5094354;28;20439;-70
2022/12/25 09:00:11;;;;;;;3.47;2.40;;;15.20;75.90;;;;;;5093409;28;20443;-70
2022/12/25 09:02:37;;;;;;;4.67;2.80;;;15.20;75.70;;;;;;5093192;28;20512;-70
2022/12/25 09:05:05;;;;;;;4.20;3.07;;;15.00;75.40;;;;;;5093507;28;20451;-70
2022/12/25 09:07:32;;;;;;;8.10;3.83;;;15.00;75.80;;;;;;5092896;28;20461;-69
2022/12/25 09:09:59;;;;;;;5.30;3.10;;;15.00;75.80;;;;;;5094012;28;20474;-70
2022/12/25 09:12:26;;;;;;;3.30;3.00;;;15.20;76.20;;;;;;5093361;28;20486;-70
2022/12/25 09:14:54;;;;;;;2.73;2.27;;;15.40;76.00;;;;;;5092815;28;20994;-70
2022/12/25 09:17:21;;;;;;;3.23;2.43;;;15.60;75.40;;;;;;5093275;28;20453;-70
2022/12/25 09:19:47;;;;;;;4.20;2.83;;;15.80;74.40;;;;;;5093698;28;20449;-70
2022/12/25 09:22:14;;;;;;;4.07;2.77;;;16.00;74.00;;;;;;5092909;28;20878;-70
2022/12/25 09:24:42;;;;;;;2.60;2.40;;;16.10;73.70;;;;;;5092315;28;20453;-70
2022/12/25 09:27:09;;;;;;;3.33;2.13;;;16.20;73.20;;;;;;5087100;28;20907;-70
2022/12/25 09:29:37;;;;;;;3.70;2.20;;;16.20;72.90;;;;;;5091219;28;20466;-70
2022/12/25 09:32:07;;;;;;;3.57;2.20;;;16.30;72.70;;;;;;5092486;28;20570;-70
2022/12/25 09:34:34;;;;;;;5.27;2.23;;;16.30;72.30;;;;;;5092335;28;20447;-71
2022/12/25 09:37:01;;;;;;;3.30;2.37;;;16.30;72.00;;;;;;5093132;28;20530;-71
2022/12/25 09:39:28;;;;;;;2.20;2.00;;;16.30;72.00;;;;;;5092866;28;20447;-70
2022/12/25 09:41:59;;;;;;;2.30;2.10;;;16.30;71.90;;;;;;5093090;28;20866;-70
2022/12/25 09:44:30;;;;;;;2.20;1.93;;;16.50;72.20;;;;;;5089269;28;20466;-69
2022/12/25 09:47:01;;;;;;;2.50;2.30;;;16.60;71.70;;;;;;5090963;28;20577;-70
2022/12/25 09:49:37;;;;;;;2.30;2.10;;;16.60;70.80;;;;;;5092027;28;20450;-70
2022/12/25 09:52:09;;;;;;;2.00;1.70;;;16.70;71.00;;;;;;5092114;28;20508;-70
2022/12/25 09:54:44;;;;;;;3.17;2.00;;;16.80;71.10;;;;;;5091807;28;20451;-72
2022/12/25 09:57:13;;;;;;;1.97;1.60;;;17.00;69.80;;;;;;5093264;28;20525;-71
2022/12/25 09:59:42;;;;;;;2.10;1.90;;;17.00;69.50;;;;;;5092934;28;20442;-70
2022/12/25 10:02:34;;;;;;;1.90;1.70;;;17.20;69.10;;;;;;5092632;28;20935;-71
2022/12/25 10:05:18;;;;;;;3.27;1.77;;;17.30;68.30;;;;;;5093488;28;20832;-70
2022/12/25 10:07:53;;;;;;;1.93;1.73;;;17.50;67.90;;;;;;5093052;28;21151;-71
2022/12/25 10:10:36;;;;;;;2.47;1.90;;;17.60;68.00;;;;;;5087916;28;20443;-71
2022/12/25 10:13:15;;;;;;;2.80;2.10;;;17.60;67.60;;;;;;5089841;28;21013;-71
2022/12/25 10:15:50;;;;;;;4.17;2.00;;;17.60;66.70;;;;;;5090242;28;20454;-71
2022/12/25 10:18:38;;;;;;;3.10;2.20;;;17.60;66.40;;;;;;5092081;28;20460;-71
2022/12/25 10:21:12;;;;;;;2.60;2.40;;;17.60;66.70;;;;;;5089473;28;20450;-71
2022/12/25 10:23:41;;;;;;;5.77;4.00;;;17.70;66.30;;;;;;5089611;28;20930;-71
2022/12/25 10:26:14;;;;;;;12.93;7.00;;;17.80;66.50;;;;;;5093603;28;20472;-71
2022/12/25 10:28:44;;;;;;;6.40;3.77;;;17.90;66.60;;;;;;5091354;28;20430;-71
2022/12/25 10:31:19;;;;;;;4.93;2.37;;;17.90;65.50;;;;;;5086824;28;20486;-71
2022/12/25 10:33:48;;;;;;;4.33;2.40;;;17.90;65.20;;;;;;5089848;28;20458;-71
2022/12/25 10:36:19;;;;;;;4.97;3.30;;;18.00;65.50;;;;;;5091457;28;20942;-71
2022/12/25 10:38:46;;;;;;;4.03;2.80;;;18.10;65.40;;;;;;5089738;28;20522;-71
2022/12/25 10:41:25;;;;;;;2.60;2.30;;;18.20;65.50;;;;;;5087967;28;20810;-71
2022/12/25 10:43:54;;;;;;;5.03;2.57;;;18.20;64.60;;;;;;5090309;28;20820;-71
2022/12/25 10:46:24;;;;;;;2.73;2.43;;;18.20;64.70;;;;;;5089664;28;20497;-71
2022/12/25 10:48:54;;;;;;;3.03;2.73;;;18.30;65.00;;;;;;5087446;28;20456;-71
2022/12/25 10:51:34;;;;;;;3.47;2.70;;;18.30;64.60;;;;;;5064083;28;20478;-70
2022/12/25 10:54:02;;;;;;;2.77;2.30;;;18.30;63.90;;;;;;5073378;28;20439;-70
2022/12/25 10:56:29;;;;;;;2.87;2.63;;;18.20;63.80;;;;;;5071856;28;20447;-69
2022/12/25 10:59:06;;;;;;;2.63;2.43;;;18.20;63.60;;;;;;5073271;28;20525;-69
2022/12/25 11:01:33;;;;;;;4.77;3.63;;;18.30;63.90;;;;;;5095764;28;20461;-70
2022/12/25 11:04:01;;;;;;;3.07;2.77;;;18.30;63.60;;;;;;5104637;28;20458;-69
2022/12/25 11:06:30;;;;;;;2.57;2.37;;;18.30;63.90;;;;;;5093815;28;20466;-75
2022/12/25 11:09:00;;;;;;;3.53;3.00;;;18.30;63.70;;;;;;5094606;28;20446;-67
2022/12/25 11:11:28;;;;;;;3.40;2.47;;;18.20;63.40;;;;;;5093307;28;20474;-69
2022/12/25 11:13:58;;;;;;;3.40;2.60;;;18.30;63.90;;;;;;5094131;28;20533;-68
2022/12/25 11:16:34;;;;;;;3.67;2.50;;;18.30;63.70;;;;;;5095577;28;20545;-68
2022/12/25 11:19:01;;;;;;;2.80;2.17;;;18.30;63.40;;;;;;5093602;28;20625;-68
2022/12/25 11:21:30;;;;;;;3.03;2.33;;;18.40;63.30;;;;;;5094490;28;20474;-68
2022/12/25 11:24:00;;;;;;;5.77;2.73;;;18.40;63.40;;;;;;5094669;28;20716;-69
2022/12/25 11:26:29;;;;;;;4.00;2.30;;;18.40;62.80;;;;;;5115477;28;20449;-68
2022/12/25 11:28:57;;;;;;;3.07;2.10;;;18.40;63.70;;;;;;5094301;28;20549;-68
2022/12/25 11:31:32;;;;;;;3.20;2.30;;;18.50;63.10;;;;;;5093837;28;20962;-68
2022/12/25 11:34:05;;;;;;;4.77;2.30;;;18.50;63.10;;;;;;5082143;28;20442;-68
2022/12/25 11:36:42;;;;;;;2.20;2.00;;;18.50;62.90;;;;;;5095483;28;20430;-68
2022/12/25 11:39:20;;;;;;;2.80;2.23;;;18.40;62.80;;;;;;5095954;28;20422;-68
2022/12/25 11:41:48;;;;;;;3.13;2.83;;;18.40;62.70;;;;;;5093448;28;20843;-67
2022/12/25 11:44:28;;;;;;;2.80;2.33;;;18.40;63.00;;;;;;5091218;28;20971;-68
2022/12/25 11:46:56;;;;;;;3.80;2.37;;;18.40;62.70;;;;;;5093814;28;20260;-67
2022/12/25 11:49:24;;;;;;;3.07;2.20;;;18.50;63.20;;;;;;5090234;28;20457;-67
2022/12/25 11:51:55;;;;;;;3.53;2.37;;;18.50;62.60;;;;;;5095315;28;20480;-68
2022/12/25 11:54:28;;;;;;;2.73;2.43;;;18.50;62.70;;;;;;5092711;28;20455;-68
2022/12/25 11:56:57;;;;;;;2.80;2.23;;;18.70;62.70;;;;;;5102650;28;20484;-68
2022/12/25 11:59:30;;;;;;;4.20;2.50;;;18.70;62.60;;;;;;5087820;28;20469;-68
2022/12/25 12:02:03;;;;;;;2.90;2.60;;;18.70;62.70;;;;;;5096290;28;20544;-68
2022/12/25 12:04:36;;;;;;;2.63;2.33;;;18.80;62.30;;;;;;5094579;28;21154;-68
2022/12/25 12:07:10;;;;;;;2.70;2.43;;;19.00;62.20;;;;;;5095302;28;20537;-68
2022/12/25 12:09:46;;;;;;;3.07;2.20;;;19.30;62.00;;;;;;5094215;28;20529;-69
2022/12/25 12:12:19;;;;;;;3.80;2.00;;;20.00;60.90;;;;;;5093209;28;20243;-69
2022/12/25 12:14:53;;;;;;;2.20;1.87;;;20.80;59.50;;;;;;5106485;28;20196;-69
2022/12/25 12:17:20;;;;;;;2.67;2.20;;;21.20;58.20;;;;;;5099661;28;20200;-69
2022/12/25 12:19:47;;;;;;;2.87;2.10;;;22.00;57.10;;;;;;5078643;28;20232;-68
2022/12/25 12:22:18;;;;;;;2.83;2.10;;;22.80;55.70;;;;;;5085673;28;20202;-69
2022/12/25 12:24:51;;;;;;;3.03;2.10;;;23.80;54.20;;;;;;5076721;28;20190;-69
2022/12/25 12:27:23;;;;;;;2.33;2.13;;;24.90;52.80;;;;;;5089575;28;20197;-69
2022/12/25 12:29:53;;;;;;;2.23;1.90;;;26.20;50.80;;;;;;5094649;28;20200;-69
2022/12/25 12:32:29;;;;;;;3.70;2.23;;;27.70;49.10;;;;;;5094194;28;20229;-69
2022/12/25 12:34:57;;;;;;;2.20;2.00;;;29.30;45.20;;;;;;5094204;28;20199;-70
2022/12/25 12:37:30;;;;;;;2.50;2.20;;;30.70;43.50;;;;;;5088707;28;20197;-69
2022/12/25 12:39:59;;;;;;;2.40;2.20;;;32.00;40.80;;;;;;5090502;28;20199;-70
2022/12/25 12:42:29;;;;;;;1.90;1.67;;;33.30;39.50;;;;;;5091640;28;20194;-69
2022/12/25 12:45:06;;;;;;;1.80;1.63;;;34.40;36.80;;;;;;5092011;28;20208;-69
2022/12/25 12:47:40;;;;;;;2.10;1.80;;;35.40;35.30;;;;;;5092201;28;20204;-69
2022/12/25 12:50:27;;;;;;;2.67;1.73;;;36.50;32.90;;;;;;5092807;28;20554;-69
2022/12/25 12:52:54;;;;;;;1.80;1.63;;;37.30;30.10;;;;;;5079760;28;20207;-69
2022/12/25 12:55:30;;;;;;;2.97;2.27;;;38.10;31.40;;;;;;5084888;28;20218;-70
2022/12/25 12:58:01;;;;;;;2.10;1.90;;;38.80;29.30;;;;;;5087251;28;20200;-69
2022/12/25 13:00:38;;;;;;;3.23;1.90;;;39.50;29.10;;;;;;5079946;28;20652;-69
2022/12/25 13:03:25;;;;;;;2.13;2.00;;;40.10;28.00;;;;;;5090367;28;20203;-70
2022/12/25 13:05:57;;;;;;;2.90;2.20;;;40.60;27.30;;;;;;5093860;28;20197;-70
2022/12/25 13:08:37;;;;;;;2.40;2.20;;;41.00;27.50;;;;;;5097777;28;20208;-69
2022/12/25 13:11:11;;;;;;;3.00;2.10;;;41.20;26.30;;;;;;5094259;28;20213;-67
2022/12/25 13:13:42;;;;;;;2.07;1.80;;;41.50;26.50;;;;;;5092810;28;20841;-67
2022/12/25 13:16:18;;;;;;;2.20;2.00;;;41.90;26.50;;;;;;5091611;28;20204;-67
2022/12/25 13:18:45;;;;;;;2.20;2.00;;;41.90;25.60;;;;;;5091404;28;20290;-67
2022/12/25 13:21:17;;;;;;;3.30;2.03;;;40.20;26.80;;;;;;5091086;28;20206;-68
2022/12/25 13:23:44;;;;;;;2.90;2.57;;;37.60;27.80;;;;;;5091852;28;20685;-68
2022/12/25 13:26:16;;;;;;;3.70;2.00;;;35.20;29.70;;;;;;5086053;28;20208;-70
2022/12/25 13:28:46;;;;;;;2.37;2.17;;;33.10;31.40;;;;;;5091155;28;20196;-69
2022/12/25 13:31:17;;;;;;;2.30;2.10;;;31.30;33.70;;;;;;5091840;28;20280;-69
2022/12/25 13:33:57;;;;;;;3.60;2.70;;;29.70;36.30;;;;;;5092375;28;20212;-68
2022/12/25 13:36:25;;;;;;;3.80;3.50;;;28.10;38.00;;;;;;5093745;28;20191;-68
2022/12/25 13:38:54;;;;;;;4.17;3.77;;;27.00;39.60;;;;;;5092914;28;20243;-68
2022/12/25 13:44:18;;;;;;;3.63;2.30;;;25.30;42.90;;;;;;5075871;28;20299;-68
2022/12/25 13:46:45;;;;;;;3.07;2.40;;;24.60;44.20;;;;;;5081782;28;20262;-67
2022/12/25 13:49:16;;;;;;;9.67;4.87;;;24.20;44.90;;;;;;5091760;28;20210;-68
2022/12/25 13:51:43;;;;;;;3.20;2.50;;;23.90;45.60;;;;;;5086884;28;20295;-68
2022/12/25 13:54:11;;;;;;;2.77;1.90;;;23.70;46.10;;;;;;5073598;28;20213;-68
2022/12/25 13:56:47;;;;;;;3.60;2.20;;;23.50;46.40;;;;;;5072054;28;20334;-68
2022/12/25 13:59:17;;;;;;;2.27;2.03;;;23.20;47.20;;;;;;5072374;28;20205;-69
2022/12/25 14:01:44;;;;;;;3.93;1.97;;;23.10;47.40;;;;;;5087152;28;20200;-68
2022/12/25 14:04:15;;;;;;;3.27;2.70;;;23.00;47.80;;;;;;5092335;28;20633;-68
2022/12/25 14:06:42;;;;;;;2.90;2.60;;;23.10;47.90;;;;;;5092028;28;20193;-68
2022/12/25 14:09:11;;;;;;;2.70;2.50;;;23.80;47.90;;;;;;5092656;28;20223;-68
2022/12/25 14:11:44;;;;;;;2.30;2.10;;;25.30;46.20;;;;;;5087703;28;20237;-68
2022/12/25 14:14:17;;;;;;;5.33;2.40;;;26.20;44.10;;;;;;5092258;28;20262;-68
2022/12/25 14:16:48;;;;;;;5.70;2.43;;;27.60;41.90;;;;;;5092509;28;20210;-68
2022/12/25 14:19:25;;;;;;;3.40;2.17;;;27.50;41.60;;;;;;5084323;28;20212;-68
2022/12/25 14:21:56;;;;;;;2.60;2.10;;;26.80;42.10;;;;;;5087459;28;20208;-68
2022/12/25 14:24:25;;;;;;;2.10;1.90;;;26.20;43.00;;;;;;5091044;28;20195;-68
2022/12/25 14:27:00;;;;;;;2.90;2.13;;;25.90;43.60;;;;;;5089449;28;20212;-68
2022/12/25 14:29:35;;;;;;;1.90;1.80;;;25.30;44.40;;;;;;5084497;28;20196;-68
2022/12/25 14:32:05;;;;;;;2.20;1.93;;;24.70;45.40;;;;;;5074271;28;20242;-69
2022/12/25 14:34:33;;;;;;;2.93;1.90;;;24.10;46.10;;;;;;5075472;28;20193;-69
2022/12/25 14:37:01;;;;;;;3.13;2.43;;;23.50;47.00;;;;;;5091652;28;20299;-69
2022/12/25 14:39:33;;;;;;;2.97;2.00;;;23.10;47.80;;;;;;5091250;28;20196;-69
2022/12/25 14:42:11;;;;;;;3.13;2.00;;;22.80;48.80;;;;;;5091657;28;20284;-69
2022/12/25 14:44:39;;;;;;;4.30;2.40;;;22.30;49.40;;;;;;5091303;28;20897;-69
2022/12/25 14:47:15;;;;;;;3.67;2.47;;;22.00;50.00;;;;;;5091402;28;20253;-69